Agana, Guam
Current Conditions -  °F | °C
As of 3:54 AM on Saturday 25 Oct 2014 (Local Time) from PGUM Reporting Station
Few Clouds Few Clouds  
Wind Chill: 81°   Ceiling: Unl
Heat Index: 87°   Visibility: 10mi
Dew Point: 76°   Wind: 5mph
Humidity: 85%   Direction: 120°ESE
Pressure: 29.87"   Gusts: NA
Location:  13.4751°N, 144.7484°E
Report Text: PGUM 241754Z 12004KT 10SM FEW012 27/24 A2987 RMK AO2 SLP106 T02720244 10283 20267 56014 $
Loading
Personal Weather Stations






























Interactive Weather Map
Tropical Storm Tracking
New forecast layout! Learn more

10-Day Weather Forecast

Advertisements
Track Severe Weather on mobile